createdAt,value
2017-05-04T03:00:24.484Z,20
2017-05-04T03:00:50.042Z,20.05
2017-05-04T03:01:15.633Z,20
2017-05-04T03:01:41.189Z,20
2017-05-04T03:02:06.774Z,20.12
2017-05-04T03:02:32.312Z,20.03
2017-05-04T03:02:57.885Z,20.09
2017-05-04T03:03:23.460Z,20.1
2017-05-04T03:03:49.021Z,20
2017-05-04T03:04:14.569Z,20.09
2017-05-04T03:04:40.201Z,19.98
2017-05-04T03:05:05.754Z,20.03
2017-05-04T03:05:31.312Z,20.08
2017-05-04T03:05:56.870Z,20.1
2017-05-04T03:06:22.470Z,20.02
2017-05-04T03:06:48.043Z,20.03
2017-05-04T03:07:13.612Z,20.05
2017-05-04T03:07:39.255Z,20.08
2017-05-04T03:08:04.813Z,20.1
2017-05-04T03:08:30.372Z,19.98
2017-05-04T03:08:55.922Z,20
2017-05-04T03:09:21.494Z,20.08
2017-05-04T03:09:47.065Z,19.98
2017-05-04T03:10:12.625Z,20.06
2017-05-04T03:10:38.224Z,20.05
2017-05-04T03:11:03.792Z,19.97
2017-05-04T03:11:29.370Z,20.03
2017-05-04T03:11:54.979Z,20.03
2017-05-04T03:12:20.641Z,20.02
2017-05-04T03:12:46.205Z,20.05
2017-05-04T03:13:11.753Z,20.03
2017-05-04T03:13:37.449Z,20.05
2017-05-04T03:14:03.055Z,20.05
2017-05-04T03:14:28.634Z,20
2017-05-04T03:14:54.253Z,20.03
2017-05-04T03:15:19.791Z,20.1
2017-05-04T03:15:45.341Z,20.05
2017-05-04T03:16:10.880Z,20
2017-05-04T03:16:36.416Z,20
2017-05-04T03:17:01.956Z,19.95
2017-05-04T03:17:27.573Z,19.97
2017-05-04T03:17:53.135Z,20.06
2017-05-04T03:18:18.688Z,20.1
2017-05-04T03:18:44.325Z,20.03
2017-05-04T03:19:09.888Z,20.03
2017-05-04T03:19:35.455Z,20
2017-05-04T03:20:01.005Z,20.05
2017-05-04T03:20:26.574Z,20.02
2017-05-04T03:20:52.138Z,20.06
2017-05-04T03:21:17.715Z,19.98
2017-05-04T03:21:43.283Z,20
2017-05-04T03:22:08.851Z,20.05
2017-05-04T03:22:34.424Z,20.03
2017-05-04T03:22:59.993Z,20
2017-05-04T03:23:25.574Z,19.97
2017-05-04T03:23:51.154Z,19.98
2017-05-04T03:24:16.713Z,20.05
2017-05-04T03:24:42.281Z,19.97
2017-05-04T03:25:07.855Z,20.08
2017-05-04T03:25:33.434Z,20.05
2017-05-04T03:25:58.990Z,19.98
2017-05-04T03:26:24.699Z,20
2017-05-04T03:26:50.266Z,19.94
2017-05-04T03:27:15.819Z,20.02
2017-05-04T03:27:41.362Z,20.05
2017-05-04T03:28:06.930Z,20.08
2017-05-04T03:28:32.491Z,20.05
2017-05-04T03:28:58.048Z,20.05
2017-05-04T03:29:23.628Z,20.06
2017-05-04T03:29:49.184Z,20.05
2017-05-04T03:30:14.894Z,19.98
2017-05-04T03:30:40.464Z,19.94
2017-05-04T03:31:06.043Z,20.03
2017-05-04T03:31:31.615Z,20.06
2017-05-04T03:31:57.190Z,19.97
2017-05-04T03:32:22.753Z,20.06
2017-05-04T03:32:48.314Z,20.03
2017-05-04T03:33:13.894Z,19.95
2017-05-04T03:33:39.483Z,19.94
2017-05-04T03:34:05.022Z,19.98
2017-05-04T03:34:30.554Z,19.95
2017-05-04T03:34:56.122Z,20.02
2017-05-04T03:35:21.695Z,20.08
2017-05-04T03:35:47.254Z,19.98
2017-05-04T03:36:12.877Z,20.06
2017-05-04T03:36:38.422Z,19.98
2017-05-04T03:37:03.980Z,20.02
2017-05-04T03:37:29.531Z,20.03
2017-05-04T03:37:55.094Z,20.06
2017-05-04T03:38:20.637Z,20.03
2017-05-04T03:38:46.177Z,20.03
2017-05-04T03:39:11.719Z,19.95
2017-05-04T03:39:37.291Z,20.03
2017-05-04T03:40:02.875Z,20.06
2017-05-04T03:40:28.437Z,20.02
2017-05-04T03:40:53.999Z,19.95
2017-05-04T03:41:19.559Z,20.03
2017-05-04T03:41:45.139Z,20.03
2017-05-04T03:42:10.789Z,20.03
2017-05-04T03:42:36.366Z,19.95
2017-05-04T03:43:01.940Z,20
2017-05-04T03:43:27.583Z,19.98
2017-05-04T03:44:20.934Z,20
2017-05-04T03:44:46.493Z,19.98
2017-05-04T03:45:12.070Z,20.03
2017-05-04T03:45:37.638Z,20.03
2017-05-04T03:46:03.219Z,20.08
2017-05-04T03:46:28.774Z,19.9
2017-05-04T03:46:54.333Z,20.03
2017-05-04T03:47:19.894Z,20.03
2017-05-04T03:47:45.528Z,19.98
2017-05-04T03:48:11.102Z,20.03
2017-05-04T03:48:36.662Z,20.03
2017-05-04T03:49:02.376Z,20.03
2017-05-04T03:49:27.963Z,20.02
2017-05-04T03:49:53.524Z,20.03
2017-05-04T03:50:19.074Z,19.98
2017-05-04T03:50:44.695Z,20.02
2017-05-04T03:51:10.253Z,19.95
2017-05-04T03:51:35.811Z,20.03
2017-05-04T03:52:01.382Z,19.9
2017-05-04T03:52:26.953Z,19.94
2017-05-04T03:52:52.575Z,19.97
2017-05-04T03:53:18.141Z,19.95
2017-05-04T03:53:43.710Z,19.94
2017-05-04T03:54:09.272Z,19.91
2017-05-04T03:54:34.931Z,19.95
2017-05-04T03:55:28.265Z,20
2017-05-04T03:55:53.829Z,20
2017-05-04T03:56:19.402Z,19.97
2017-05-04T03:56:44.962Z,20
2017-05-04T03:57:10.546Z,19.98
2017-05-04T03:57:36.098Z,19.97
2017-05-04T03:58:01.664Z,19.9
2017-05-04T03:58:27.244Z,20.03
2017-05-04T03:58:52.845Z,20.03
2017-05-04T03:59:18.397Z,20.05
2017-05-04T03:59:44.025Z,20
2017-05-04T04:00:09.604Z,20
2017-05-04T04:00:35.165Z,20.06
2017-05-04T04:01:00.715Z,20.06
2017-05-04T04:01:26.269Z,20.02
2017-05-04T04:01:51.846Z,20
2017-05-04T04:02:17.412Z,20.03
2017-05-04T04:02:42.964Z,20
2017-05-04T04:03:08.522Z,19.98
2017-05-04T04:03:34.091Z,20.05
2017-05-04T04:03:59.651Z,20
2017-05-04T04:04:25.200Z,19.95
2017-05-04T04:04:50.853Z,19.94
2017-05-04T04:05:16.424Z,19.98
2017-05-04T04:05:41.962Z,19.94
2017-05-04T04:06:07.630Z,19.98
2017-05-04T04:06:33.201Z,19.97
2017-05-04T04:06:58.749Z,19.97
2017-05-04T04:07:24.325Z,20
2017-05-04T04:07:49.873Z,19.98
2017-05-04T04:08:15.421Z,19.97
2017-05-04T04:08:40.977Z,19.97
2017-05-04T04:09:06.514Z,20
2017-05-04T04:09:32.087Z,19.95
2017-05-04T04:09:57.628Z,19.94
2017-05-04T04:10:23.179Z,19.94
2017-05-04T04:10:48.794Z,19.93
2017-05-04T04:11:14.359Z,19.95
2017-05-04T04:11:39.920Z,19.95
2017-05-04T04:12:05.576Z,19.98
2017-05-04T04:12:31.096Z,19.97
2017-05-04T04:12:56.647Z,19.95
2017-05-04T04:13:22.182Z,20.02
2017-05-04T04:13:47.731Z,19.94
2017-05-04T04:14:13.282Z,19.97
2017-05-04T04:14:38.946Z,19.94
2017-05-04T04:15:04.467Z,20.03
2017-05-04T04:15:30.065Z,19.95
2017-05-04T04:15:55.650Z,20.03
2017-05-04T04:16:21.236Z,19.91
2017-05-04T04:16:46.805Z,19.94
2017-05-04T04:17:12.385Z,19.97
2017-05-04T04:17:37.937Z,19.94
2017-05-04T04:18:03.546Z,19.95
2017-05-04T04:18:29.103Z,19.95
2017-05-04T04:18:54.662Z,19.97
2017-05-04T04:19:20.217Z,19.98
2017-05-04T04:19:45.780Z,19.93
2017-05-04T04:20:11.370Z,20
2017-05-04T04:20:36.941Z,19.98
2017-05-04T04:21:02.505Z,19.97
2017-05-04T04:21:28.059Z,20.02
2017-05-04T04:21:53.650Z,19.9
2017-05-04T04:22:19.205Z,20
2017-05-04T04:22:44.765Z,19.94
2017-05-04T04:23:10.330Z,19.94
2017-05-04T04:23:35.875Z,20
2017-05-04T04:24:01.432Z,19.91
2017-05-04T04:24:26.991Z,19.93
2017-05-04T04:24:52.530Z,19.95
2017-05-04T04:25:18.080Z,20
2017-05-04T04:25:43.631Z,19.9
2017-05-04T04:26:09.179Z,19.95
2017-05-04T04:26:34.818Z,19.95
2017-05-04T04:27:00.379Z,19.9
2017-05-04T04:27:25.950Z,19.94
2017-05-04T04:27:51.513Z,19.97
2017-05-04T04:28:17.095Z,19.94
2017-05-04T04:28:42.651Z,19.94
2017-05-04T04:29:08.241Z,19.97
2017-05-04T04:29:33.808Z,19.95
2017-05-04T04:29:59.379Z,19.93
2017-05-04T04:30:24.937Z,19.94
2017-05-04T04:30:50.507Z,19.94
2017-05-04T04:31:16.066Z,19.91
2017-05-04T04:31:41.763Z,19.97
2017-05-04T04:32:07.323Z,19.94
2017-05-04T04:32:32.881Z,19.97
2017-05-04T04:32:58.549Z,19.94
2017-05-04T04:33:24.102Z,19.93
2017-05-04T04:33:49.663Z,19.98
2017-05-04T04:34:15.302Z,19.97
2017-05-04T04:34:40.900Z,19.97
2017-05-04T04:35:06.484Z,19.95
2017-05-04T04:35:32.041Z,20.03
2017-05-04T04:36:20.223Z,19.95
2017-05-04T04:36:45.788Z,19.97
2017-05-04T04:37:11.353Z,19.91
2017-05-04T04:37:37.074Z,19.93
2017-05-04T04:38:02.655Z,19.94
2017-05-04T04:38:28.219Z,19.94
2017-05-04T04:38:53.774Z,19.91
2017-05-04T04:39:19.343Z,19.97
2017-05-04T04:39:44.908Z,20
2017-05-04T04:40:10.488Z,19.95
2017-05-04T04:40:36.034Z,19.94
2017-05-04T04:41:01.584Z,19.94
2017-05-04T04:41:27.146Z,19.9
2017-05-04T04:41:52.703Z,19.94
2017-05-04T04:42:18.263Z,19.95
2017-05-04T04:43:27.006Z,19.95
2017-05-04T04:43:52.556Z,20
2017-05-04T04:44:18.138Z,19.98
2017-05-04T04:44:43.722Z,19.95
2017-05-04T04:45:09.371Z,19.95
2017-05-04T04:45:34.964Z,19.94
2017-05-04T04:46:00.520Z,19.9
2017-05-04T04:46:26.097Z,19.97
2017-05-04T04:46:51.642Z,19.94
2017-05-04T04:47:17.187Z,19.94
2017-05-04T04:47:42.757Z,20
2017-05-04T04:48:08.580Z,19.97
2017-05-04T04:48:34.130Z,20
2017-05-04T04:48:59.682Z,19.93
2017-05-04T04:49:25.264Z,19.97
2017-05-04T04:49:50.949Z,19.98
2017-05-04T04:50:16.502Z,19.97
2017-05-04T04:50:42.063Z,19.95
2017-05-04T04:51:07.773Z,19.95
2017-05-04T04:51:33.343Z,19.98
2017-05-04T04:51:58.922Z,19.98
2017-05-04T04:52:24.483Z,20
2017-05-04T04:52:50.235Z,19.93
2017-05-04T04:53:15.839Z,19.97
2017-05-04T04:53:41.395Z,20
2017-05-04T04:54:06.950Z,19.94
2017-05-04T04:54:32.524Z,19.98
2017-05-04T04:54:58.110Z,20
2017-05-04T04:55:23.793Z,19.95
2017-05-04T04:55:49.382Z,20
2017-05-04T04:56:14.954Z,20.03
2017-05-04T04:56:40.574Z,19.97
2017-05-04T04:57:06.150Z,19.93
2017-05-04T04:57:31.700Z,19.97
2017-05-04T04:57:57.282Z,19.94
2017-05-04T04:58:22.840Z,19.97
2017-05-04T04:58:48.416Z,19.94
2017-05-04T04:59:13.960Z,20
2017-05-04T04:59:39.523Z,20.02
2017-05-04T05:00:05.103Z,20.05
2017-05-04T05:00:30.692Z,19.94
2017-05-04T05:00:56.252Z,19.9
2017-05-04T05:01:21.803Z,19.93
2017-05-04T05:01:47.394Z,19.95
2017-05-04T05:02:12.950Z,20.03
2017-05-04T05:02:38.540Z,20.03
2017-05-04T05:03:04.114Z,20
2017-05-04T05:03:29.675Z,19.95
2017-05-04T05:03:55.243Z,20.03
2017-05-04T05:04:20.922Z,20.03
2017-05-04T05:04:46.494Z,19.95
2017-05-04T05:05:12.048Z,19.98
2017-05-04T05:05:37.631Z,19.98
2017-05-04T05:06:03.203Z,19.91
2017-05-04T05:06:28.781Z,19.94
2017-05-04T05:06:54.341Z,19.98
2017-05-04T05:07:19.923Z,20
2017-05-04T05:07:45.501Z,19.93
2017-05-04T05:08:11.140Z,19.97
2017-05-04T05:08:36.711Z,20
2017-05-04T05:09:02.277Z,19.95
2017-05-04T05:09:27.873Z,19.93
2017-05-04T05:09:53.431Z,19.97
2017-05-04T05:10:19.005Z,19.94
2017-05-04T05:10:44.721Z,19.94
2017-05-04T05:11:10.309Z,19.98
2017-05-04T05:11:35.873Z,19.95
2017-05-04T05:12:01.444Z,19.95
2017-05-04T05:12:27.034Z,19.94
2017-05-04T05:12:52.600Z,19.98
2017-05-04T05:13:18.168Z,19.94
2017-05-04T05:13:43.831Z,20
2017-05-04T05:14:09.398Z,19.91
2017-05-04T05:14:34.977Z,19.94
2017-05-04T05:15:00.532Z,19.95
2017-05-04T05:15:26.073Z,19.93
2017-05-04T05:15:51.644Z,20
2017-05-04T05:16:17.223Z,19.9
2017-05-04T05:16:42.758Z,19.93
2017-05-04T05:17:08.323Z,20.02
2017-05-04T05:17:33.894Z,20
2017-05-04T05:17:59.450Z,19.91
2017-05-04T05:18:25.042Z,19.97
2017-05-04T05:18:50.611Z,19.94
2017-05-04T05:19:16.270Z,19.91
2017-05-04T05:19:41.831Z,19.98
2017-05-04T05:20:07.419Z,19.97
2017-05-04T05:20:32.961Z,19.98
2017-05-04T05:20:58.533Z,19.98
2017-05-04T05:21:24.101Z,19.97
2017-05-04T05:21:49.684Z,19.93
2017-05-04T05:22:15.254Z,20
2017-05-04T05:22:40.803Z,19.94
2017-05-04T05:23:06.376Z,20.03
2017-05-04T05:23:31.957Z,19.97
2017-05-04T05:23:57.535Z,19.98
2017-05-04T05:24:23.105Z,20.02
2017-05-04T05:24:48.700Z,19.93
2017-05-04T05:25:14.285Z,19.95
2017-05-04T05:25:39.852Z,20
2017-05-04T05:26:05.466Z,19.91
2017-05-04T05:26:31.030Z,19.93
2017-05-04T05:26:56.589Z,19.93
2017-05-04T05:27:22.134Z,19.97
2017-05-04T05:27:47.684Z,19.94
2017-05-04T05:28:13.262Z,19.97
2017-05-04T05:28:38.811Z,19.97
2017-05-04T05:29:04.366Z,20.02
2017-05-04T05:29:29.998Z,19.98
2017-05-04T05:29:55.621Z,19.97
2017-05-04T05:30:21.169Z,20
2017-05-04T05:30:46.719Z,19.98
2017-05-04T05:31:12.272Z,19.98
2017-05-04T05:31:37.830Z,19.98
2017-05-04T05:32:03.494Z,20
2017-05-04T05:32:29.046Z,19.95
2017-05-04T05:32:54.620Z,19.98
2017-05-04T05:33:20.183Z,19.93
2017-05-04T05:33:45.763Z,19.97
2017-05-04T05:34:11.330Z,19.95
2017-05-04T05:34:36.890Z,20.02
2017-05-04T05:35:02.458Z,19.91
2017-05-04T05:35:28.045Z,20
2017-05-04T05:35:53.624Z,19.98
2017-05-04T05:36:19.195Z,19.97
2017-05-04T05:36:44.753Z,19.98
2017-05-04T05:37:10.330Z,19.98
2017-05-04T05:37:35.897Z,20
2017-05-04T05:38:01.689Z,19.97
2017-05-04T05:38:27.223Z,19.97
2017-05-04T05:38:52.778Z,19.94
2017-05-04T05:39:18.325Z,19.95
2017-05-04T05:40:21.902Z,19.95
2017-05-04T05:41:19.981Z,20
2017-05-04T05:41:45.547Z,19.97
2017-05-04T05:42:11.102Z,19.98
2017-05-04T05:42:36.786Z,19.93
2017-05-04T05:43:02.359Z,19.9
2017-05-04T05:43:27.905Z,19.98
2017-05-04T05:43:53.575Z,19.98
2017-05-04T05:44:19.143Z,19.95
2017-05-04T05:44:44.705Z,19.97
2017-05-04T05:45:10.295Z,19.95
2017-05-04T05:45:35.891Z,19.9
2017-05-04T05:46:01.441Z,19.98
2017-05-04T05:46:27.061Z,20
2017-05-04T05:46:52.634Z,19.98
2017-05-04T05:47:18.189Z,19.91
2017-05-04T05:47:43.811Z,19.98
2017-05-04T05:48:09.379Z,19.98
2017-05-04T05:48:34.944Z,19.98
2017-05-04T05:49:00.506Z,19.97
2017-05-04T05:49:26.390Z,19.95
2017-05-04T05:49:52.033Z,19.98
2017-05-04T05:50:17.591Z,19.94
2017-05-04T05:50:43.207Z,19.98
2017-05-04T05:51:08.846Z,19.97
2017-05-04T05:51:34.386Z,19.95
2017-05-04T05:51:59.931Z,19.97
2017-05-04T05:52:25.595Z,19.91
2017-05-04T05:52:51.152Z,19.97
2017-05-04T05:53:16.692Z,19.97
2017-05-04T05:53:42.257Z,19.97
2017-05-04T05:54:07.810Z,19.95
2017-05-04T05:54:33.362Z,19.98
2017-05-04T05:54:59.024Z,20
2017-05-04T05:55:24.598Z,20
2017-05-04T05:55:50.141Z,19.91
2017-05-04T05:56:15.691Z,19.98
2017-05-04T05:56:41.264Z,19.97
2017-05-04T05:57:06.811Z,19.91
2017-05-04T05:57:32.383Z,19.91
2017-05-04T05:57:57.965Z,19.93
2017-05-04T05:58:23.521Z,19.94
2017-05-04T05:58:49.193Z,19.98
2017-05-04T05:59:14.750Z,19.95
2017-05-04T05:59:40.315Z,19.91
2017-05-04T06:00:05.954Z,19.94
2017-05-04T06:00:59.482Z,19.97
2017-05-04T06:01:25.043Z,19.97
2017-05-04T06:01:50.602Z,19.93
2017-05-04T06:02:16.177Z,19.91
2017-05-04T06:02:41.833Z,19.94
2017-05-04T06:03:07.394Z,19.98
2017-05-04T06:03:33.043Z,19.95
2017-05-04T06:03:58.755Z,19.91
2017-05-04T06:04:24.298Z,19.97
2017-05-04T06:04:49.854Z,20.03
2017-05-04T06:05:15.433Z,19.93
2017-05-04T06:05:41.004Z,19.93
2017-05-04T06:06:06.574Z,19.98
2017-05-04T06:06:32.183Z,19.97
2017-05-04T06:06:57.746Z,20
2017-05-04T06:07:23.389Z,19.98
2017-05-04T06:07:48.971Z,19.94
2017-05-04T06:08:14.544Z,19.95
2017-05-04T06:08:40.175Z,19.95
2017-05-04T06:09:05.729Z,19.97
2017-05-04T06:09:31.289Z,19.91
2017-05-04T06:09:56.853Z,19.93
2017-05-04T06:10:22.415Z,19.98
2017-05-04T06:10:47.961Z,19.93
2017-05-04T06:11:13.534Z,19.94
2017-05-04T06:11:39.101Z,19.97
2017-05-04T06:12:04.674Z,19.88
2017-05-04T06:12:30.232Z,20
2017-05-04T06:12:55.849Z,20
2017-05-04T06:13:21.399Z,19.97
2017-05-04T06:13:46.961Z,19.91
2017-05-04T06:14:35.160Z,19.93
2017-05-04T06:15:00.733Z,19.94
2017-05-04T06:15:26.298Z,19.94
2017-05-04T06:15:51.875Z,19.98
2017-05-04T06:16:17.426Z,19.91
2017-05-04T06:16:43.025Z,19.94
2017-05-04T06:17:08.571Z,19.9
2017-05-04T06:17:34.124Z,19.91
2017-05-04T06:17:59.691Z,19.95
2017-05-04T06:18:25.363Z,19.9
2017-05-04T06:18:50.930Z,19.91
2017-05-04T06:19:16.482Z,19.9
2017-05-04T06:19:42.045Z,19.98
2017-05-04T06:20:07.628Z,20
2017-05-04T06:20:33.210Z,19.95
2017-05-04T06:20:58.785Z,19.94
2017-05-04T06:21:24.345Z,19.95
2017-05-04T06:21:49.955Z,19.88
2017-05-04T06:22:15.508Z,19.95
2017-05-04T06:22:41.065Z,19.95
2017-05-04T06:23:06.729Z,19.95
2017-05-04T06:23:32.325Z,19.91
2017-05-04T06:23:57.879Z,19.93
2017-05-04T06:24:23.432Z,19.98
2017-05-04T06:24:49.005Z,19.9
2017-05-04T06:25:14.582Z,19.93
2017-05-04T06:25:40.133Z,19.98
2017-05-04T06:26:05.685Z,19.94
2017-05-04T06:26:31.335Z,19.91
2017-05-04T06:26:56.896Z,19.9
2017-05-04T06:27:22.461Z,19.9
2017-05-04T06:27:48.021Z,19.88
2017-05-04T06:28:13.596Z,19.91
2017-05-04T06:28:39.137Z,19.91
2017-05-04T06:29:04.717Z,19.95
2017-05-04T06:29:30.312Z,19.88
2017-05-04T06:29:55.881Z,19.95
2017-05-04T06:30:21.432Z,19.93
2017-05-04T06:30:47.007Z,19.91
2017-05-04T06:31:12.561Z,19.94
2017-05-04T06:31:38.124Z,19.9
2017-05-04T06:32:03.693Z,19.84
2017-05-04T06:32:29.272Z,19.88
2017-05-04T06:32:54.865Z,19.93
2017-05-04T06:33:20.423Z,19.9
2017-05-04T06:33:45.994Z,19.97
2017-05-04T06:34:11.575Z,19.93
2017-05-04T06:34:38.100Z,19.88
2017-05-04T06:35:03.674Z,19.91
2017-05-04T06:35:29.245Z,19.88
2017-05-04T06:35:54.870Z,19.9
2017-05-04T06:36:20.432Z,19.93
2017-05-04T06:36:45.969Z,19.94
2017-05-04T06:37:11.608Z,19.95
2017-05-04T06:37:37.156Z,19.88
2017-05-04T06:38:02.709Z,19.93
2017-05-04T06:38:28.244Z,19.95
2017-05-04T06:38:53.808Z,19.93
2017-05-04T06:39:19.364Z,19.97
2017-05-04T06:39:44.928Z,19.91
2017-05-04T06:40:10.484Z,19.95
2017-05-04T06:40:36.021Z,19.93
2017-05-04T06:41:01.576Z,19.93
2017-05-04T06:41:27.124Z,19.93
2017-05-04T06:41:52.692Z,19.98
2017-05-04T06:42:18.261Z,19.93
2017-05-04T06:42:43.826Z,19.91
2017-05-04T06:43:09.393Z,19.91
2017-05-04T06:43:34.941Z,19.97
2017-05-04T06:44:00.506Z,19.86
2017-05-04T06:44:26.083Z,19.93
2017-05-04T06:44:51.634Z,19.9
2017-05-04T06:45:17.190Z,19.93
2017-05-04T06:45:42.754Z,19.88
2017-05-04T06:46:08.302Z,19.94
2017-05-04T06:46:33.876Z,19.9
2017-05-04T06:46:59.432Z,19.9
2017-05-04T06:47:24.986Z,19.94
2017-05-04T06:47:50.535Z,19.9
2017-05-04T06:48:48.964Z,19.93
2017-05-04T06:49:14.526Z,19.9
2017-05-04T06:49:40.176Z,19.93
2017-05-04T06:50:05.742Z,19.9
2017-05-04T06:50:31.294Z,19.94
2017-05-04T06:50:57.002Z,19.87
2017-05-04T06:51:22.557Z,19.94
2017-05-04T06:51:48.125Z,19.93
2017-05-04T06:52:13.700Z,19.94
2017-05-04T06:52:39.347Z,19.9
2017-05-04T06:53:04.905Z,19.93
2017-05-04T06:53:30.550Z,19.9
2017-05-04T06:53:56.106Z,19.93
2017-05-04T06:54:21.672Z,19.91
2017-05-04T06:54:47.251Z,19.93
2017-05-04T06:55:12.825Z,19.9
2017-05-04T06:55:38.405Z,19.87
2017-05-04T06:56:04.005Z,19.91
2017-05-04T06:56:29.571Z,19.94
2017-05-04T06:56:55.128Z,19.9
2017-05-04T06:57:20.693Z,19.88
2017-05-04T06:57:46.272Z,19.93
2017-05-04T06:58:11.821Z,19.91
2017-05-04T06:58:37.525Z,19.94
2017-05-04T06:59:03.153Z,19.93
2017-05-04T06:59:28.703Z,19.93
2017-05-04T06:59:54.265Z,19.86
2017-05-04T07:00:19.887Z,19.93
2017-05-04T07:00:45.443Z,19.97
2017-05-04T07:01:10.991Z,19.88
2017-05-04T07:01:36.546Z,19.93
2017-05-04T07:02:02.105Z,19.9
2017-05-04T07:02:27.669Z,19.9
2017-05-04T07:02:53.239Z,19.9
2017-05-04T07:03:18.803Z,19.97
2017-05-04T07:03:44.365Z,19.88
2017-05-04T07:04:09.924Z,19.93
2017-05-04T07:04:35.492Z,19.93
2017-05-04T07:05:01.104Z,19.91
2017-05-04T07:05:26.667Z,19.94
2017-05-04T07:05:52.213Z,19.87
2017-05-04T07:06:17.781Z,19.93
2017-05-04T07:06:43.343Z,19.91
2017-05-04T07:07:08.904Z,19.93
2017-05-04T07:07:34.465Z,19.9
2017-05-04T07:08:00.015Z,19.93
2017-05-04T07:08:25.591Z,19.94
2017-05-04T07:08:51.201Z,19.94
2017-05-04T07:09:16.814Z,19.83
2017-05-04T07:09:42.489Z,19.93
2017-05-04T07:10:08.065Z,19.91
2017-05-04T07:10:33.643Z,19.88
2017-05-04T07:10:59.594Z,19.9
2017-05-04T07:11:25.161Z,19.93
2017-05-04T07:11:50.722Z,19.94
2017-05-04T07:12:16.286Z,19.91
2017-05-04T07:12:41.863Z,19.88
2017-05-04T07:13:07.517Z,19.91
2017-05-04T07:13:33.074Z,19.83
2017-05-04T07:13:58.628Z,19.91
2017-05-04T07:14:24.207Z,19.9
2017-05-04T07:14:49.831Z,19.87
2017-05-04T07:15:15.405Z,19.91
2017-05-04T07:15:40.961Z,19.95
2017-05-04T07:16:06.525Z,19.87
2017-05-04T07:16:32.091Z,19.93
2017-05-04T07:16:57.747Z,19.87
2017-05-04T07:17:23.304Z,19.97
2017-05-04T07:17:48.872Z,19.91
2017-05-04T07:18:14.405Z,19.88
2017-05-04T07:18:39.986Z,19.93
2017-05-04T07:19:05.547Z,19.8
2017-05-04T07:19:31.098Z,19.91
2017-05-04T07:19:56.655Z,19.91
2017-05-04T07:20:22.235Z,19.9
2017-05-04T07:20:47.804Z,19.93
2017-05-04T07:21:13.394Z,19.88
2017-05-04T07:21:38.965Z,19.87
2017-05-04T07:22:04.514Z,19.87
2017-05-04T07:22:30.071Z,19.88
2017-05-04T07:22:55.625Z,19.9
2017-05-04T07:23:21.194Z,19.91
2017-05-04T07:23:46.760Z,19.9
2017-05-04T07:24:12.334Z,19.93
2017-05-04T07:24:38.005Z,19.79
2017-05-04T07:25:03.569Z,19.91
2017-05-04T07:25:29.120Z,19.86
2017-05-04T07:25:54.850Z,19.83
2017-05-04T07:26:20.455Z,19.88
2017-05-04T07:26:46.072Z,19.8
2017-05-04T07:27:11.644Z,19.87
2017-05-04T07:27:37.233Z,19.87
2017-05-04T07:28:02.794Z,19.79
2017-05-04T07:28:28.368Z,19.93
2017-05-04T07:29:27.053Z,19.87
2017-05-04T07:29:52.625Z,19.87
2017-05-04T07:30:18.180Z,19.8
2017-05-04T07:30:43.785Z,19.88
2017-05-04T07:31:09.342Z,19.78
2017-05-04T07:31:34.906Z,19.84
2017-05-04T07:32:00.455Z,19.83
2017-05-04T07:32:26.030Z,19.84
2017-05-04T07:32:51.591Z,19.87
2017-05-04T07:33:17.165Z,19.84
2017-05-04T07:33:42.741Z,19.93
2017-05-04T07:34:08.434Z,19.78
2017-05-04T07:34:33.999Z,19.84
2017-05-04T07:34:59.553Z,19.84
2017-05-04T07:35:25.112Z,19.87
2017-05-04T07:35:50.689Z,19.84
2017-05-04T07:36:16.255Z,19.84
2017-05-04T07:36:41.803Z,19.84
2017-05-04T07:37:07.363Z,19.84
2017-05-04T07:37:32.934Z,19.84
2017-05-04T07:37:58.487Z,19.88
2017-05-04T07:38:24.064Z,19.88
2017-05-04T07:38:49.595Z,19.88
2017-05-04T07:39:15.155Z,19.83
2017-05-04T07:39:40.713Z,19.86
2017-05-04T07:40:06.275Z,19.83
2017-05-04T07:40:31.915Z,19.79
2017-05-04T07:40:57.474Z,19.88
2017-05-04T07:41:23.030Z,19.84
2017-05-04T07:41:48.601Z,19.84
2017-05-04T07:42:14.320Z,19.76
2017-05-04T07:42:39.884Z,19.87
2017-05-04T07:44:31.293Z,19.91
2017-05-04T07:44:56.822Z,19.9
2017-05-04T07:45:22.494Z,19.86
2017-05-04T07:45:48.052Z,19.93
2017-05-04T07:46:13.654Z,19.84
2017-05-04T07:46:39.338Z,19.88
2017-05-04T07:47:04.791Z,19.88
2017-05-04T07:47:30.350Z,19.87
2017-05-04T07:47:55.910Z,19.8
2017-05-04T07:48:21.489Z,19.88
2017-05-04T07:48:47.078Z,19.84
2017-05-04T07:49:12.631Z,19.91
2017-05-04T07:49:38.222Z,19.84
2017-05-04T07:50:03.813Z,19.86
2017-05-04T07:50:29.366Z,19.88
2017-05-04T07:50:54.913Z,19.8
2017-05-04T07:51:20.461Z,19.84
2017-05-04T07:51:46.026Z,19.83
2017-05-04T07:52:11.564Z,19.84
2017-05-04T07:52:37.172Z,19.79
2017-05-04T07:53:02.733Z,19.79
2017-05-04T07:53:28.311Z,19.88
2017-05-04T07:53:53.869Z,19.93
2017-05-04T07:54:19.416Z,19.83
2017-05-04T07:55:22.937Z,19.8
2017-05-04T07:55:48.521Z,19.79
2017-05-04T07:56:14.082Z,19.86
2017-05-04T07:56:39.654Z,19.87
2017-05-04T07:57:05.402Z,19.79
2017-05-04T07:57:30.970Z,19.9
2017-05-04T07:57:56.530Z,19.86
2017-05-04T07:58:22.101Z,19.73
2017-05-04T07:58:47.651Z,19.79
2017-05-04T07:59:13.210Z,19.84
2017-05-04T07:59:38.765Z,19.88
2017-05-04T08:00:04.348Z,19.84
2017-05-04T08:00:29.979Z,19.84
2017-05-04T08:00:55.595Z,19.87
2017-05-04T08:01:21.182Z,19.83
2017-05-04T08:01:46.774Z,19.83
2017-05-04T08:02:12.328Z,19.87
2017-05-04T08:02:37.901Z,19.8
2017-05-04T08:03:03.514Z,19.87
2017-05-04T08:03:29.049Z,19.78
2017-05-04T08:03:54.664Z,19.78
2017-05-04T08:04:20.231Z,19.79
2017-05-04T08:04:45.810Z,19.86
2017-05-04T08:05:11.430Z,19.83
2017-05-04T08:05:37.031Z,19.83
2017-05-04T08:06:02.616Z,19.79
2017-05-04T08:06:28.158Z,19.83
2017-05-04T08:06:53.790Z,19.8
2017-05-04T08:07:19.352Z,19.78
2017-05-04T08:07:44.910Z,19.84
2017-05-04T08:08:10.487Z,19.83
2017-05-04T08:08:36.112Z,19.79
2017-05-04T08:09:01.665Z,19.88
2017-05-04T08:09:27.224Z,19.91
2017-05-04T08:09:52.797Z,19.8
2017-05-04T08:10:18.350Z,19.9
2017-05-04T08:10:43.914Z,19.84
2017-05-04T08:11:09.486Z,19.8
2017-05-04T08:11:35.065Z,19.83
2017-05-04T08:12:00.856Z,19.79
2017-05-04T08:12:26.405Z,19.79
2017-05-04T08:12:52.022Z,19.78
2017-05-04T08:13:17.583Z,19.84
2017-05-04T08:13:43.177Z,19.83
2017-05-04T08:14:08.731Z,19.84
2017-05-04T08:14:34.273Z,19.9
2017-05-04T08:14:59.872Z,19.79
2017-05-04T08:15:25.410Z,19.9
2017-05-04T08:15:51.049Z,19.83
2017-05-04T08:16:16.622Z,19.78
2017-05-04T08:16:42.179Z,19.8
2017-05-04T08:17:07.766Z,19.9
2017-05-04T08:17:33.332Z,19.83
2017-05-04T08:17:58.946Z,19.88
2017-05-04T08:18:24.513Z,19.87
2017-05-04T08:18:50.205Z,19.91
2017-05-04T08:19:15.848Z,19.91
2017-05-04T08:19:41.415Z,19.88
2017-05-04T08:20:07.022Z,19.79
2017-05-04T08:20:32.587Z,19.84
2017-05-04T08:20:58.169Z,19.86
2017-05-04T08:21:23.805Z,19.8
2017-05-04T08:21:49.355Z,19.79
2017-05-04T08:22:14.916Z,19.86
2017-05-04T08:22:40.582Z,19.86
2017-05-04T08:23:06.140Z,19.83
2017-05-04T08:23:31.707Z,19.83
2017-05-04T08:23:57.272Z,19.91
2017-05-04T08:24:22.863Z,19.8
2017-05-04T08:24:48.461Z,19.9
2017-05-04T08:25:14.044Z,19.86
2017-05-04T08:25:39.607Z,19.8
2017-05-04T08:26:05.159Z,19.79
2017-05-04T08:26:30.741Z,19.8
2017-05-04T08:26:56.368Z,19.83
2017-05-04T08:27:21.930Z,19.87
2017-05-04T08:27:47.502Z,19.76
2017-05-04T08:28:13.174Z,19.84
2017-05-04T08:28:38.752Z,19.83
2017-05-04T08:29:04.310Z,19.8
2017-05-04T08:29:29.986Z,19.86
2017-05-04T08:29:55.553Z,19.8
2017-05-04T08:30:21.133Z,19.83
2017-05-04T08:30:46.782Z,19.78
2017-05-04T08:31:12.351Z,19.84
2017-05-04T08:31:37.919Z,19.8
2017-05-04T08:32:03.485Z,19.84
2017-05-04T08:32:29.174Z,19.91
2017-05-04T08:32:54.741Z,19.83
2017-05-04T08:33:20.333Z,19.8
2017-05-04T08:33:46.013Z,19.8
2017-05-04T08:34:11.593Z,19.78
2017-05-04T08:34:37.149Z,19.91
2017-05-04T08:35:02.730Z,19.83
2017-05-04T08:35:28.273Z,19.8
2017-05-04T08:35:53.829Z,19.83
2017-05-04T08:36:19.406Z,19.8
2017-05-04T08:36:44.975Z,19.8
2017-05-04T08:37:10.593Z,19.83
2017-05-04T08:37:36.139Z,19.8
2017-05-04T08:38:01.679Z,19.76
2017-05-04T08:38:27.240Z,19.83
2017-05-04T08:38:52.965Z,19.87
2017-05-04T08:39:18.664Z,19.83
2017-05-04T08:39:44.229Z,19.8
2017-05-04T08:40:09.807Z,19.78